createdAt,value
2022-11-10T00:01:01.424Z,70
2022-11-10T00:06:09.379Z,70
2022-11-10T00:11:17.331Z,70
2022-11-10T00:16:25.278Z,70
2022-11-10T00:21:33.249Z,70
2022-11-10T00:26:41.201Z,70
2022-11-10T00:31:49.129Z,70
2022-11-10T00:36:57.121Z,70
2022-11-10T00:42:05.052Z,70
2022-11-10T00:47:13.004Z,70
2022-11-10T00:52:20.975Z,70
2022-11-10T00:57:28.924Z,70
2022-11-10T01:07:44.846Z,70
2022-11-10T01:12:52.783Z,70.5
2022-11-10T01:18:00.718Z,70
2022-11-10T01:23:08.724Z,70.5
2022-11-10T01:28:16.649Z,70.5
2022-11-10T01:33:24.884Z,70.5
2022-11-10T01:38:32.596Z,70
2022-11-10T01:43:40.524Z,70
2022-11-10T01:48:48.463Z,70
2022-11-10T01:53:56.498Z,70
2022-11-10T01:59:04.388Z,70
2022-11-10T02:04:12.345Z,70
2022-11-10T02:09:20.329Z,70
2022-11-10T02:14:28.248Z,70
2022-11-10T02:19:36.223Z,70
2022-11-10T02:24:44.196Z,70
2022-11-10T02:29:52.124Z,70
2022-11-10T02:35:00.108Z,70
2022-11-10T02:45:16.014Z,70
2022-11-10T02:50:23.920Z,70
2022-11-10T02:55:31.875Z,70
2022-11-10T03:00:39.854Z,70
2022-11-10T03:05:47.802Z,70
2022-11-10T03:10:55.761Z,70
2022-11-10T03:16:03.725Z,70
2022-11-10T03:21:11.824Z,70
2022-11-10T03:31:27.589Z,70
2022-11-10T03:36:35.718Z,70
2022-11-10T03:41:43.478Z,70
2022-11-10T03:46:51.914Z,70
2022-11-10T03:57:07.322Z,70
2022-11-10T04:02:13.524Z,70
2022-11-10T04:07:21.437Z,70
2022-11-10T04:12:27.625Z,70
2022-11-10T04:17:35.706Z,70
2022-11-10T04:22:43.533Z,70
2022-11-10T04:27:49.691Z,70
2022-11-10T04:38:03.857Z,70
2022-11-10T04:43:11.790Z,70
2022-11-10T04:53:27.717Z,70
2022-11-10T04:58:35.639Z,70
2022-11-10T05:03:41.805Z,70
2022-11-10T05:08:49.795Z,70
2022-11-10T05:13:57.743Z,70
2022-11-10T05:19:05.895Z,70
2022-11-10T05:24:13.657Z,70
2022-11-10T05:29:21.598Z,70
2022-11-10T05:34:27.777Z,70
2022-11-10T05:39:35.755Z,70
2022-11-10T05:44:43.705Z,70
2022-11-10T05:54:59.641Z,70
2022-11-10T06:00:07.608Z,70
2022-11-10T06:05:15.536Z,70
2022-11-10T06:10:23.533Z,70
2022-11-10T06:15:31.445Z,70
2022-11-10T06:20:39.400Z,70
2022-11-10T06:25:45.612Z,70
2022-11-10T06:30:53.843Z,70
2022-11-10T06:36:01.474Z,70
2022-11-10T06:41:09.439Z,70
2022-11-10T06:46:17.379Z,70
2022-11-10T06:51:25.346Z,70
2022-11-10T06:56:33.317Z,70
2022-11-10T07:01:41.343Z,70
2022-11-10T07:06:49.246Z,70
2022-11-10T07:11:57.181Z,70
2022-11-10T07:22:13.068Z,70
2022-11-10T07:27:21.051Z,70
2022-11-10T07:32:28.982Z,70
2022-11-10T07:37:36.930Z,70
2022-11-10T07:42:44.895Z,70
2022-11-10T07:47:52.829Z,70
2022-11-10T07:53:00.773Z,70.5
2022-11-10T07:58:08.778Z,70.5
2022-11-10T08:03:16.688Z,70.5
2022-11-10T08:08:24.651Z,70.5
2022-11-10T08:13:32.618Z,70.5
2022-11-10T08:18:40.580Z,70.5
2022-11-10T08:23:48.512Z,70.5
2022-11-10T08:28:56.504Z,70.5
2022-11-10T08:34:04.415Z,70.5
2022-11-10T08:39:13.236Z,70.5
2022-11-10T08:44:21.047Z,70.5
2022-11-10T08:49:28.278Z,70.5
2022-11-10T08:54:36.248Z,70.5
2022-11-10T08:59:42.448Z,70.5
2022-11-10T09:04:50.390Z,70.5
2022-11-10T09:10:06.574Z,71
2022-11-10T09:15:06.295Z,70.5
2022-11-10T09:20:14.336Z,70.5
2022-11-10T09:25:22.184Z,71
2022-11-10T09:30:30.180Z,71
2022-11-10T09:35:38.115Z,71
2022-11-10T09:40:46.072Z,72
2022-11-10T09:45:54.036Z,73
2022-11-10T09:51:01.977Z,73.5
2022-11-10T09:56:09.922Z,74.5
2022-11-10T10:01:17.943Z,74.5
2022-11-10T10:06:27.965Z,75
2022-11-10T10:11:33.816Z,75.5
2022-11-10T10:16:41.794Z,75
2022-11-10T10:21:49.753Z,75
2022-11-10T10:26:57.703Z,75
2022-11-10T10:32:05.689Z,75
2022-11-10T10:37:13.616Z,75
2022-11-10T10:47:29.544Z,75
2022-11-10T10:52:37.464Z,74.5
2022-11-10T10:57:45.426Z,74.5
2022-11-10T11:02:53.408Z,74
2022-11-10T11:08:01.329Z,74
2022-11-10T11:13:09.275Z,74
2022-11-10T11:18:17.281Z,74
2022-11-10T11:23:25.183Z,74
2022-11-10T11:28:33.154Z,74
2022-11-10T11:38:49.067Z,74
2022-11-10T11:43:56.994Z,74.5
2022-11-10T11:49:04.938Z,74
2022-11-10T11:54:12.944Z,74
2022-11-10T11:59:20.845Z,74.5
2022-11-10T12:04:28.814Z,76
2022-11-10T12:09:36.772Z,75
2022-11-10T12:14:44.709Z,74.5
2022-11-10T12:19:52.676Z,74
2022-11-10T12:25:00.636Z,74
2022-11-10T12:30:08.569Z,74
2022-11-10T12:35:16.528Z,74
2022-11-10T12:40:24.487Z,74
2022-11-10T12:45:32.424Z,74
2022-11-10T12:50:40.366Z,73.5
2022-11-10T12:55:48.352Z,73.5
2022-11-10T13:00:56.428Z,73.5
2022-11-10T13:06:04.243Z,73.5
2022-11-10T13:11:12.239Z,73.5
2022-11-10T13:16:20.146Z,73.5
2022-11-10T13:21:28.111Z,73
2022-11-10T13:26:36.091Z,72.5
2022-11-10T13:31:44.031Z,72.5
2022-11-10T13:36:51.976Z,72
2022-11-10T13:41:59.967Z,72
2022-11-10T13:47:07.902Z,71.5
2022-11-10T13:52:15.863Z,71.5
2022-11-10T13:57:23.828Z,71.5
2022-11-10T14:02:31.778Z,71
2022-11-10T14:07:39.729Z,71
2022-11-10T14:12:47.722Z,70.5
2022-11-10T14:17:55.660Z,70.5
2022-11-10T14:23:03.587Z,70.5
2022-11-10T14:28:11.673Z,70.5
2022-11-10T14:33:19.506Z,70.5
2022-11-10T14:38:27.876Z,70
2022-11-10T14:43:35.547Z,70
2022-11-10T14:48:43.394Z,70
2022-11-10T14:53:51.346Z,70
2022-11-10T14:58:59.402Z,70
2022-11-10T15:04:05.430Z,70
2022-11-10T15:09:13.373Z,70
2022-11-10T15:14:21.465Z,69.5
2022-11-10T15:19:29.316Z,69.5
2022-11-10T15:24:37.254Z,69.5
2022-11-10T15:29:45.309Z,70
2022-11-10T15:34:53.167Z,70
2022-11-10T15:40:01.114Z,69.5
2022-11-10T15:45:09.188Z,69.5
2022-11-10T15:50:16.998Z,69
2022-11-10T15:55:24.944Z,68.5
2022-11-10T16:00:33.047Z,69
2022-11-10T16:05:40.856Z,68.5
2022-11-10T16:10:48.812Z,68.5
2022-11-10T16:15:56.882Z,68.5
2022-11-10T16:21:04.723Z,68
2022-11-10T16:26:12.657Z,68.5
2022-11-10T16:31:20.729Z,68.5
2022-11-10T16:36:28.574Z,68.5
2022-11-10T16:41:36.646Z,69
2022-11-10T16:46:44.592Z,68.5
2022-11-10T16:51:52.437Z,71
2022-11-10T16:57:00.393Z,71
2022-11-10T17:02:08.485Z,69.5
2022-11-10T17:07:16.394Z,70
2022-11-10T17:12:24.246Z,69.5
2022-11-10T17:17:32.334Z,69
2022-11-10T17:22:40.160Z,69.5
2022-11-10T17:27:48.132Z,71.5
2022-11-10T17:33:05.051Z,72
2022-11-10T17:38:04.054Z,70.5
2022-11-10T17:43:11.990Z,70
2022-11-10T17:48:20.085Z,69
2022-11-10T17:53:28.136Z,70
2022-11-10T17:58:35.861Z,72
2022-11-10T18:03:43.954Z,73
2022-11-10T18:13:59.753Z,74.5
2022-11-10T18:19:07.814Z,77
2022-11-10T18:24:15.662Z,76.5
2022-11-10T18:29:23.609Z,76.5
2022-11-10T18:34:31.698Z,75
2022-11-10T18:39:39.535Z,75
2022-11-10T18:44:47.502Z,76.5
2022-11-10T18:49:55.564Z,77.5
2022-11-10T19:00:11.385Z,77.5
2022-11-10T19:05:19.433Z,76.5
2022-11-10T19:10:27.272Z,75.5
2022-11-10T19:15:35.216Z,75.5
2022-11-10T19:20:43.305Z,75
2022-11-10T19:25:51.131Z,75
2022-11-10T19:41:15.130Z,71
2022-11-10T19:51:30.876Z,70.5
2022-11-10T19:56:38.966Z,71
2022-11-10T20:01:46.903Z,73
2022-11-10T20:06:54.811Z,74.5
2022-11-10T20:12:01.032Z,74.5
2022-11-10T20:17:08.861Z,74.5
2022-11-10T20:22:15.040Z,73.5
2022-11-10T20:27:21.346Z,72.5
2022-11-10T20:32:27.375Z,72
2022-11-10T20:37:33.549Z,71.5
2022-11-10T20:42:42.820Z,71.5
2022-11-10T20:47:47.678Z,71.5
2022-11-10T20:52:55.643Z,71.5
2022-11-10T20:58:01.932Z,71.5
2022-11-10T21:03:09.762Z,71.5
2022-11-10T21:08:17.704Z,71.5
2022-11-10T21:13:26.073Z,71.5
2022-11-10T21:18:33.625Z,71
2022-11-10T21:23:41.584Z,71
2022-11-10T21:28:49.684Z,71
2022-11-10T21:33:57.501Z,71
2022-11-10T21:39:05.464Z,71
2022-11-10T21:44:13.548Z,71
2022-11-10T21:49:21.382Z,71
2022-11-10T21:54:29.327Z,71
2022-11-10T21:59:37.436Z,71
2022-11-10T22:04:45.245Z,71
2022-11-10T22:09:53.211Z,71
2022-11-10T22:15:01.280Z,71
2022-11-10T22:20:09.128Z,71
2022-11-10T22:25:17.106Z,71
2022-11-10T22:30:25.158Z,71
2022-11-10T22:35:33.003Z,71
2022-11-10T22:40:40.955Z,71
2022-11-10T22:45:49.045Z,71
2022-11-10T22:50:56.878Z,71
2022-11-10T22:56:04.831Z,71
2022-11-10T23:01:12.941Z,71
2022-11-10T23:06:20.748Z,71
2022-11-10T23:11:28.720Z,71
2022-11-10T23:16:36.807Z,71
2022-11-10T23:21:44.644Z,71
2022-11-10T23:26:52.764Z,71
2022-11-10T23:32:00.691Z,71
2022-11-10T23:37:08.500Z,71
2022-11-10T23:42:16.484Z,71
2022-11-10T23:47:24.558Z,71
2022-11-10T23:52:32.373Z,71
2022-11-10T23:57:40.321Z,71
